createdAt,value
2023-04-09T00:01:26.194Z,63.60
2023-04-09T00:03:53.509Z,63.60
2023-04-09T00:06:23.029Z,63.60
2023-04-09T00:08:50.879Z,63.90
2023-04-09T00:11:18.356Z,63.90
2023-04-09T00:13:45.680Z,63.90
2023-04-09T00:16:13.158Z,64.00
2023-04-09T00:18:40.467Z,64.00
2023-04-09T00:21:08.836Z,64.50
2023-04-09T00:23:38.669Z,63.70
2023-04-09T00:26:08.148Z,63.60
2023-04-09T00:28:38.027Z,63.70
2023-04-09T00:31:07.472Z,63.70
2023-04-09T00:33:37.150Z,63.40
2023-04-09T00:36:07.084Z,63.60
2023-04-09T00:38:34.413Z,63.80
2023-04-09T00:41:01.800Z,63.90
2023-04-09T00:43:29.445Z,63.80
2023-04-09T00:45:59.885Z,63.70
2023-04-09T00:48:30.425Z,63.70
2023-04-09T00:51:02.437Z,63.70
2023-04-09T00:53:31.972Z,63.80
2023-04-09T00:55:59.309Z,63.70
2023-04-09T00:58:28.780Z,63.70
2023-04-09T01:00:56.431Z,63.70
2023-04-09T01:03:26.241Z,63.80
2023-04-09T01:06:05.485Z,63.90
2023-04-09T01:08:38.424Z,63.90
2023-04-09T01:11:21.021Z,63.80
2023-04-09T01:14:38.985Z,63.90
2023-04-09T01:17:12.567Z,63.90
2023-04-09T01:20:00.379Z,63.60
2023-04-09T01:22:41.589Z,63.40
2023-04-09T01:25:48.030Z,63.40
2023-04-09T01:28:24.020Z,63.40
2023-04-09T01:30:59.441Z,63.40
2023-04-09T01:33:32.340Z,63.40
2023-04-09T01:36:01.107Z,63.40
2023-04-09T01:38:30.814Z,63.40
2023-04-09T01:41:01.549Z,63.40
2023-04-09T01:43:32.120Z,63.60
2023-04-09T01:46:03.772Z,63.50
2023-04-09T01:48:32.863Z,63.40
2023-04-09T01:51:05.453Z,63.70
2023-04-09T01:53:32.730Z,63.70
2023-04-09T01:56:04.949Z,63.70
2023-04-09T01:58:36.753Z,63.80
2023-04-09T02:01:11.895Z,63.80
2023-04-09T02:03:51.486Z,63.60
2023-04-09T02:06:40.343Z,63.60
2023-04-09T02:09:11.509Z,63.50
2023-04-09T02:11:43.659Z,63.60
2023-04-09T02:14:12.517Z,63.80
2023-04-09T02:16:43.078Z,63.80
2023-04-09T02:19:10.447Z,63.80
2023-04-09T02:21:38.001Z,63.90
2023-04-09T02:24:05.892Z,64.00
2023-04-09T02:26:33.308Z,64.00
2023-04-09T02:29:02.832Z,64.30
2023-04-09T02:31:30.345Z,64.30
2023-04-09T02:33:57.858Z,64.30
2023-04-09T02:36:25.985Z,64.50
2023-04-09T02:38:53.466Z,64.60
2023-04-09T02:41:24.897Z,64.70
2023-04-09T02:43:52.191Z,64.90
2023-04-09T02:46:22.007Z,64.90
2023-04-09T02:48:49.620Z,64.90
2023-04-09T02:51:19.892Z,64.80
2023-04-09T02:53:49.434Z,65.00
2023-04-09T02:56:16.697Z,65.10
2023-04-09T02:58:43.984Z,65.20
2023-04-09T03:01:11.320Z,65.10
2023-04-09T03:03:42.185Z,65.20
2023-04-09T03:06:09.717Z,65.10
2023-04-09T03:08:39.699Z,65.20
2023-04-09T03:11:07.018Z,65.30
2023-04-09T03:13:36.400Z,65.40
2023-04-09T03:16:03.907Z,65.30
2023-04-09T03:18:31.430Z,65.40
2023-04-09T03:21:01.255Z,65.50
2023-04-09T03:23:34.891Z,65.60
2023-04-09T03:26:03.930Z,65.60
2023-04-09T03:28:33.715Z,65.70
2023-04-09T03:31:03.531Z,65.70
2023-04-09T03:33:30.880Z,65.70
2023-04-09T03:35:58.251Z,65.80
2023-04-09T03:38:25.810Z,65.80
2023-04-09T03:40:53.077Z,65.70
2023-04-09T03:43:20.452Z,65.90
2023-04-09T03:45:50.035Z,66.00
2023-04-09T03:48:19.462Z,66.10
2023-04-09T03:50:46.739Z,66.00
2023-04-09T03:53:13.997Z,66.00
2023-04-09T03:55:41.292Z,66.10
2023-04-09T03:58:08.615Z,66.10
2023-04-09T04:00:40.311Z,66.00
2023-04-09T04:03:07.691Z,66.00
2023-04-09T04:05:37.377Z,65.60
2023-04-09T04:08:04.694Z,65.80
2023-04-09T04:10:33.615Z,65.80
2023-04-09T04:13:02.392Z,65.80
2023-04-09T04:15:29.944Z,65.80
2023-04-09T04:18:01.913Z,65.90
2023-04-09T04:20:29.223Z,66.00
2023-04-09T04:22:56.524Z,65.90
2023-04-09T04:25:23.996Z,66.00
2023-04-09T04:27:51.326Z,66.00
2023-04-09T04:30:18.661Z,66.10
2023-04-09T04:32:46.263Z,66.00
2023-04-09T04:35:15.867Z,66.10
2023-04-09T04:37:43.178Z,66.20
2023-04-09T04:40:13.042Z,66.20
2023-04-09T04:42:40.300Z,66.10
2023-04-09T04:45:08.261Z,66.20
2023-04-09T04:47:38.035Z,66.20
2023-04-09T04:50:06.553Z,66.30
2023-04-09T04:52:33.881Z,66.20
2023-04-09T04:55:04.003Z,66.10
2023-04-09T04:57:31.241Z,66.00
2023-04-09T05:00:03.253Z,65.90
2023-04-09T05:02:30.626Z,65.90
2023-04-09T05:04:58.022Z,65.80
2023-04-09T05:07:25.323Z,65.90
2023-04-09T05:09:52.739Z,65.90
2023-04-09T05:12:20.044Z,66.00
2023-04-09T05:14:49.787Z,66.00
2023-04-09T05:17:17.161Z,66.00
2023-04-09T05:19:44.453Z,65.80
2023-04-09T05:22:11.722Z,65.80
2023-04-09T05:24:39.025Z,65.90
2023-04-09T05:27:08.768Z,66.00
2023-04-09T05:29:36.121Z,65.90
2023-04-09T05:32:03.896Z,66.60
2023-04-09T05:34:31.261Z,66.10
2023-04-09T05:36:58.638Z,66.10
2023-04-09T05:39:28.380Z,66.10
2023-04-09T05:41:56.374Z,66.10
2023-04-09T05:44:25.932Z,66.10
2023-04-09T05:46:53.252Z,66.10
2023-04-09T05:49:22.837Z,66.20
2023-04-09T05:51:50.614Z,66.20
2023-04-09T05:54:17.938Z,66.10
2023-04-09T05:56:45.219Z,66.20
2023-04-09T05:59:14.963Z,66.20
2023-04-09T06:01:44.751Z,66.30
2023-04-09T06:04:12.284Z,66.30
2023-04-09T06:06:39.787Z,66.40
2023-04-09T06:09:07.109Z,66.50
2023-04-09T06:11:36.688Z,66.50
2023-04-09T06:14:03.969Z,66.60
2023-04-09T06:16:33.604Z,66.60
2023-04-09T06:19:00.920Z,66.70
2023-04-09T06:21:28.182Z,66.80
2023-04-09T06:23:57.747Z,66.80
2023-04-09T06:26:25.124Z,66.90
2023-04-09T06:28:52.448Z,66.90
2023-04-09T06:31:22.136Z,67.10
2023-04-09T06:33:51.928Z,67.10
2023-04-09T06:36:20.607Z,67.20
2023-04-09T06:38:47.863Z,67.20
2023-04-09T06:41:15.518Z,67.30
2023-04-09T06:43:43.024Z,67.30
2023-04-09T06:46:14.574Z,67.40
2023-04-09T06:48:44.804Z,67.60
2023-04-09T06:51:15.155Z,67.70
2023-04-09T06:53:42.852Z,67.70
2023-04-09T06:56:12.384Z,67.60
2023-04-09T06:58:39.668Z,68.00
2023-04-09T07:01:07.129Z,67.80
2023-04-09T07:03:34.528Z,67.80
2023-04-09T07:06:02.137Z,67.90
2023-04-09T07:08:29.536Z,68.00
2023-04-09T07:10:59.064Z,67.90
2023-04-09T07:15:53.737Z,67.90
2023-04-09T07:18:21.140Z,67.90
2023-04-09T07:20:51.916Z,68.00
2023-04-09T07:23:23.875Z,68.20
2023-04-09T07:25:51.628Z,68.40
2023-04-09T07:28:18.902Z,68.30
2023-04-09T07:30:48.386Z,68.20
2023-04-09T07:33:18.330Z,68.20
2023-04-09T07:35:48.132Z,68.10
2023-04-09T07:38:16.293Z,68.20
2023-04-09T07:40:46.202Z,68.10
2023-04-09T07:43:15.688Z,68.30
2023-04-09T07:45:45.209Z,68.90
2023-04-09T07:48:14.754Z,68.20
2023-04-09T07:50:42.394Z,68.40
2023-04-09T07:53:09.749Z,68.40
2023-04-09T07:55:37.007Z,68.50
2023-04-09T07:58:07.116Z,68.60
2023-04-09T08:00:36.857Z,68.70
2023-04-09T08:03:08.679Z,69.30
2023-04-09T08:05:39.901Z,68.70
2023-04-09T08:08:09.704Z,68.60
2023-04-09T08:10:37.047Z,68.60
2023-04-09T08:13:06.969Z,68.70
2023-04-09T08:15:36.842Z,68.90
2023-04-09T08:18:07.187Z,68.90
2023-04-09T08:20:34.810Z,68.90
2023-04-09T08:23:04.285Z,68.90
2023-04-09T08:25:31.587Z,69.10
2023-04-09T08:28:01.358Z,68.90
2023-04-09T08:30:28.625Z,69.10
2023-04-09T08:32:59.171Z,69.00
2023-04-09T08:35:33.007Z,69.00
2023-04-09T08:38:00.338Z,69.20
2023-04-09T08:40:29.764Z,69.00
2023-04-09T08:42:57.778Z,69.00
2023-04-09T08:45:25.169Z,69.00
2023-04-09T08:47:54.941Z,68.90
2023-04-09T08:50:22.874Z,69.00
2023-04-09T08:52:51.007Z,69.00
2023-04-09T08:55:18.288Z,69.00
2023-04-09T08:57:45.656Z,69.00
2023-04-09T09:00:13.435Z,68.90
2023-04-09T09:03:10.253Z,68.90
2023-04-09T09:05:41.395Z,69.00
2023-04-09T09:08:16.394Z,68.80
2023-04-09T09:10:48.843Z,68.90
2023-04-09T09:13:25.275Z,68.90
2023-04-09T09:15:56.352Z,69.60
2023-04-09T09:18:44.600Z,69.10
2023-04-09T09:21:16.611Z,69.20
2023-04-09T09:23:48.321Z,69.00
2023-04-09T09:26:16.775Z,69.00
2023-04-09T09:28:45.116Z,68.90
2023-04-09T09:31:18.438Z,68.60
2023-04-09T09:33:49.314Z,68.70
2023-04-09T09:36:31.607Z,68.80
2023-04-09T09:39:03.559Z,69.00
2023-04-09T09:41:33.305Z,69.20
2023-04-09T09:44:04.488Z,69.10
2023-04-09T09:46:40.628Z,69.90
2023-04-09T09:49:10.911Z,69.20
2023-04-09T09:51:41.534Z,69.20
2023-04-09T09:54:14.287Z,69.10
2023-04-09T09:56:43.671Z,68.90
2023-04-09T09:59:24.837Z,68.60
2023-04-09T10:02:00.345Z,68.60
2023-04-09T10:04:33.554Z,68.00
2023-04-09T10:07:03.979Z,68.00
2023-04-09T10:09:37.727Z,67.80
2023-04-09T10:12:07.178Z,67.80
2023-04-09T10:14:36.422Z,67.60
2023-04-09T10:17:07.285Z,67.40
2023-04-09T10:19:40.364Z,67.20
2023-04-09T10:22:12.168Z,67.10
2023-04-09T10:24:39.455Z,67.10
2023-04-09T10:27:11.761Z,67.00
2023-04-09T10:29:52.987Z,66.80
2023-04-09T10:32:22.195Z,66.70
2023-04-09T10:34:54.743Z,66.70
2023-04-09T10:37:25.939Z,66.80
2023-04-09T10:39:56.551Z,67.20
2023-04-09T10:42:40.137Z,67.30
2023-04-09T10:45:17.624Z,67.10
2023-04-09T10:47:46.304Z,67.50
2023-04-09T10:50:17.204Z,67.20
2023-04-09T10:52:45.060Z,67.10
2023-04-09T10:55:34.483Z,67.00
2023-04-09T10:58:04.485Z,66.60
2023-04-09T11:00:34.288Z,66.60
2023-04-09T11:03:22.003Z,66.30
2023-04-09T11:06:10.611Z,66.50
2023-04-09T11:08:41.652Z,66.50
2023-04-09T11:11:09.069Z,67.00
2023-04-09T11:13:38.836Z,67.20
2023-04-09T11:16:07.289Z,67.50
2023-04-09T11:18:35.586Z,67.90
2023-04-09T11:21:04.487Z,68.20
2023-04-09T11:23:33.104Z,68.50
2023-04-09T11:26:01.880Z,67.80
2023-04-09T11:28:31.593Z,68.00
2023-04-09T11:31:04.675Z,67.60
2023-04-09T11:33:34.214Z,66.80
2023-04-09T11:36:05.510Z,67.50
2023-04-09T11:38:32.863Z,67.90
2023-04-09T11:41:02.222Z,67.90
2023-04-09T11:43:32.067Z,66.90
2023-04-09T11:46:01.868Z,66.10
2023-04-09T11:48:30.617Z,65.80
2023-04-09T11:51:01.652Z,65.90
2023-04-09T11:53:31.450Z,65.10
2023-04-09T11:55:59.007Z,64.80
2023-04-09T11:58:28.557Z,64.40
2023-04-09T12:00:58.745Z,64.40
2023-04-09T12:03:30.920Z,64.80
2023-04-09T12:06:01.606Z,65.20
2023-04-09T12:08:29.070Z,64.10
2023-04-09T12:10:56.414Z,63.50
2023-04-09T12:13:33.358Z,63.40
2023-04-09T12:16:05.737Z,63.10
2023-04-09T12:18:36.731Z,62.40
2023-04-09T12:21:04.472Z,62.50
2023-04-09T12:23:35.094Z,62.30
2023-04-09T12:26:02.616Z,62.30
2023-04-09T12:28:32.123Z,62.40
2023-04-09T12:31:03.975Z,62.40
2023-04-09T12:33:32.268Z,62.00
2023-04-09T12:36:02.508Z,62.20
2023-04-09T12:38:32.270Z,62.10
2023-04-09T12:40:59.639Z,62.20
2023-04-09T12:43:29.277Z,62.10
2023-04-09T12:45:57.209Z,61.70
2023-04-09T12:48:26.842Z,61.50
2023-04-09T12:50:56.508Z,61.20
2023-04-09T12:53:26.221Z,60.90
2023-04-09T12:55:53.558Z,60.60
2023-04-09T12:58:23.187Z,60.40
2023-04-09T13:00:53.736Z,60.30
2023-04-09T13:03:23.496Z,60.10
2023-04-09T13:05:53.420Z,59.90
2023-04-09T13:08:20.744Z,59.90
2023-04-09T13:10:48.169Z,59.90
2023-04-09T13:13:15.532Z,60.20
2023-04-09T13:15:45.124Z,59.80
2023-04-09T13:18:15.221Z,60.00
2023-04-09T13:20:42.565Z,60.70
2023-04-09T13:23:09.997Z,60.50
2023-04-09T13:25:37.380Z,61.00
2023-04-09T13:28:07.377Z,61.30
2023-04-09T13:30:34.857Z,61.70
2023-04-09T13:33:06.832Z,61.70
2023-04-09T13:35:34.265Z,61.80
2023-04-09T13:38:03.916Z,61.60
2023-04-09T13:40:31.201Z,61.20
2023-04-09T13:42:58.527Z,61.00
2023-04-09T13:45:25.791Z,61.10
2023-04-09T13:47:53.999Z,61.20
2023-04-09T13:50:21.714Z,61.10
2023-04-09T13:52:49.083Z,61.40
2023-04-09T13:55:18.588Z,61.20
2023-04-09T13:57:48.054Z,60.60
2023-04-09T14:00:15.650Z,60.00
2023-04-09T14:02:45.166Z,59.80
2023-04-09T14:05:12.526Z,59.90
2023-04-09T14:07:39.828Z,60.00
2023-04-09T14:10:07.792Z,59.80
2023-04-09T14:12:39.944Z,59.80
2023-04-09T14:15:08.058Z,60.10
2023-04-09T14:17:35.425Z,60.30
2023-04-09T14:20:04.041Z,60.30
2023-04-09T14:22:31.439Z,60.30
2023-04-09T14:24:59.430Z,60.50
2023-04-09T14:27:27.221Z,60.50
2023-04-09T14:29:56.841Z,60.60
2023-04-09T14:32:24.204Z,60.70
2023-04-09T14:34:51.470Z,61.00
2023-04-09T14:37:18.707Z,60.80
2023-04-09T14:39:46.070Z,60.70
2023-04-09T14:42:14.381Z,60.30
2023-04-09T14:44:41.681Z,60.10
2023-04-09T14:47:09.033Z,60.00
2023-04-09T14:49:41.037Z,60.10
2023-04-09T14:52:10.989Z,60.40
2023-04-09T14:54:38.302Z,60.10
2023-04-09T14:57:05.908Z,60.10
2023-04-09T14:59:33.211Z,59.90
2023-04-09T15:02:00.704Z,59.70
2023-04-09T15:04:28.441Z,59.90
2023-04-09T15:06:55.921Z,60.00
2023-04-09T15:09:25.493Z,60.00
2023-04-09T15:11:54.133Z,59.50
2023-04-09T15:14:28.073Z,59.20
2023-04-09T15:16:55.987Z,59.30
2023-04-09T15:19:25.959Z,59.50
2023-04-09T15:21:53.236Z,59.30
2023-04-09T15:24:20.574Z,59.30
2023-04-09T15:26:47.847Z,59.40
2023-04-09T15:29:15.430Z,59.50
2023-04-09T15:31:44.971Z,59.70
2023-04-09T15:34:12.307Z,59.40
2023-04-09T15:36:39.627Z,59.20
2023-04-09T15:39:09.393Z,59.10
2023-04-09T15:41:41.549Z,59.30
2023-04-09T15:44:08.860Z,59.20
2023-04-09T15:46:37.495Z,59.10
2023-04-09T15:49:09.595Z,59.30
2023-04-09T15:51:36.922Z,59.30
2023-04-09T15:54:04.380Z,59.30
2023-04-09T15:56:32.083Z,59.00
2023-04-09T15:59:02.036Z,58.60
2023-04-09T16:01:29.419Z,59.00
2023-04-09T16:03:57.016Z,59.50
2023-04-09T16:06:24.346Z,59.70
2023-04-09T16:08:54.442Z,59.90
2023-04-09T16:11:26.614Z,59.90
2023-04-09T16:13:53.880Z,59.80
2023-04-09T16:16:21.793Z,59.90
2023-04-09T16:18:49.379Z,59.80
2023-04-09T16:21:18.943Z,60.00
2023-04-09T16:23:48.790Z,60.20
2023-04-09T16:26:23.348Z,60.50
2023-04-09T16:28:50.810Z,60.70
2023-04-09T16:31:20.630Z,60.80
2023-04-09T16:33:47.932Z,60.60
2023-04-09T16:36:17.722Z,60.70
2023-04-09T16:38:45.285Z,60.80
2023-04-09T16:41:12.563Z,60.90
2023-04-09T16:43:39.849Z,60.90
2023-04-09T16:46:07.598Z,60.80
2023-04-09T16:48:41.555Z,60.90
2023-04-09T16:51:08.991Z,61.00
2023-04-09T16:53:38.397Z,60.80
2023-04-09T16:56:07.170Z,60.70
2023-04-09T16:58:34.476Z,60.70
2023-04-09T17:01:03.959Z,61.30
2023-04-09T17:03:31.484Z,60.70
2023-04-09T17:05:59.710Z,60.50
2023-04-09T17:08:27.245Z,60.50
2023-04-09T17:11:01.838Z,60.30
2023-04-09T17:13:31.602Z,60.40
2023-04-09T17:15:58.966Z,60.50
2023-04-09T17:18:26.447Z,60.60
2023-04-09T17:20:53.781Z,60.70
2023-04-09T17:23:26.258Z,60.70
2023-04-09T17:25:53.914Z,60.70
2023-04-09T17:28:23.557Z,60.90
2023-04-09T17:30:53.444Z,60.90
2023-04-09T17:33:20.840Z,60.80
2023-04-09T17:35:50.763Z,60.90
2023-04-09T17:38:21.414Z,61.00
2023-04-09T17:40:53.100Z,61.10
2023-04-09T17:43:20.371Z,61.10
2023-04-09T17:45:47.784Z,61.10
2023-04-09T17:48:17.936Z,61.20
2023-04-09T17:50:50.168Z,61.50
2023-04-09T17:53:17.643Z,61.60
2023-04-09T17:55:51.064Z,61.70
2023-04-09T17:58:18.408Z,61.90
2023-04-09T18:00:45.723Z,62.20
2023-04-09T18:03:13.221Z,62.40
2023-04-09T18:05:41.264Z,62.30
2023-04-09T18:08:08.647Z,62.50
2023-04-09T18:10:38.465Z,62.70
2023-04-09T18:13:06.035Z,63.50
2023-04-09T18:15:37.778Z,63.00
2023-04-09T18:18:05.052Z,63.30
2023-04-09T18:20:32.410Z,63.20
2023-04-09T18:22:59.703Z,63.50
2023-04-09T18:25:28.559Z,63.40
2023-04-09T18:27:56.601Z,63.60
2023-04-09T18:30:23.961Z,63.80
2023-04-09T18:32:51.805Z,63.90
2023-04-09T18:35:19.581Z,63.70
2023-04-09T18:37:46.879Z,63.80
2023-04-09T18:40:20.242Z,63.50
2023-04-09T18:42:53.506Z,63.50
2023-04-09T18:45:23.121Z,63.50
2023-04-09T18:47:52.512Z,63.10
2023-04-09T18:50:19.903Z,63.30
2023-04-09T18:52:47.322Z,63.00
2023-04-09T18:55:19.250Z,62.80
2023-04-09T18:57:48.709Z,62.70
2023-04-09T19:00:16.292Z,62.80
2023-04-09T19:02:43.851Z,62.90
2023-04-09T19:05:14.229Z,63.10
2023-04-09T19:07:41.555Z,63.80
2023-04-09T19:10:09.255Z,63.20
2023-04-09T19:12:39.049Z,63.40
2023-04-09T19:15:06.894Z,63.40
2023-04-09T19:17:34.273Z,63.30
2023-04-09T19:20:02.992Z,63.30
2023-04-09T19:22:32.814Z,63.40
2023-04-09T19:25:02.342Z,63.50
2023-04-09T19:27:29.628Z,63.50
2023-04-09T19:30:01.260Z,63.20
2023-04-09T19:32:31.052Z,63.40
2023-04-09T19:34:58.349Z,63.50
2023-04-09T19:37:28.025Z,64.20
2023-04-09T19:39:55.936Z,63.70
2023-04-09T19:42:24.045Z,63.90
2023-04-09T19:44:53.686Z,64.20
2023-04-09T19:47:23.386Z,64.30
2023-04-09T19:49:51.216Z,64.30
2023-04-09T19:52:23.211Z,64.50
2023-04-09T19:54:54.989Z,64.40
2023-04-09T19:57:22.474Z,64.30
2023-04-09T19:59:52.372Z,64.00
2023-04-09T20:02:22.396Z,64.20
2023-04-09T20:04:52.386Z,64.30
2023-04-09T20:07:19.680Z,64.20
2023-04-09T20:09:49.712Z,64.10
2023-04-09T20:12:17.051Z,64.20
2023-04-09T20:14:47.195Z,64.30
2023-04-09T20:17:14.523Z,64.20
2023-04-09T20:19:41.776Z,64.20
2023-04-09T20:22:09.293Z,64.40
2023-04-09T20:24:38.746Z,64.40
2023-04-09T20:27:06.559Z,64.40
2023-04-09T20:29:33.888Z,64.30
2023-04-09T20:32:02.203Z,64.40
2023-04-09T20:34:32.633Z,64.20
2023-04-09T20:37:00.285Z,64.30
2023-04-09T20:39:31.265Z,64.30
2023-04-09T20:42:01.424Z,64.60
2023-04-09T20:44:29.019Z,64.60
2023-04-09T20:46:56.356Z,64.70
2023-04-09T20:49:23.988Z,64.60
2023-04-09T20:51:51.952Z,64.60
2023-04-09T20:54:23.159Z,64.70
2023-04-09T20:56:53.011Z,65.00
2023-04-09T20:59:25.196Z,65.00
2023-04-09T21:01:53.919Z,65.10
2023-04-09T21:04:26.455Z,65.00
2023-04-09T21:06:55.995Z,65.10
2023-04-09T21:09:24.720Z,65.00
2023-04-09T21:11:52.022Z,64.90
2023-04-09T21:14:19.389Z,65.00
2023-04-09T21:16:49.142Z,65.00
2023-04-09T21:19:16.606Z,65.10
2023-04-09T21:21:43.965Z,65.20
2023-04-09T21:24:11.249Z,65.20
2023-04-09T21:26:49.873Z,65.10
2023-04-09T21:29:21.981Z,65.20
2023-04-09T21:31:52.012Z,65.20
2023-04-09T21:34:19.370Z,65.30
2023-04-09T21:36:48.997Z,65.20
2023-04-09T21:39:16.260Z,65.00
2023-04-09T21:41:45.919Z,65.10
2023-04-09T21:44:13.487Z,65.20
2023-04-09T21:46:46.065Z,65.20
2023-04-09T21:49:15.933Z,65.10
2023-04-09T21:51:45.782Z,65.00
2023-04-09T21:54:15.342Z,65.10
2023-04-09T21:56:44.939Z,65.20
2023-04-09T21:59:16.628Z,65.30
2023-04-09T22:01:47.534Z,65.20
2023-04-09T22:04:16.961Z,65.00
2023-04-09T22:06:46.603Z,64.90
2023-04-09T22:09:16.364Z,64.90
2023-04-09T22:11:46.525Z,65.00
2023-04-09T22:14:16.636Z,65.10
2023-04-09T22:16:46.075Z,65.20
2023-04-09T22:19:14.244Z,65.20
2023-04-09T22:21:44.137Z,65.30
2023-04-09T22:24:15.961Z,65.40
2023-04-09T22:26:46.889Z,65.20
2023-04-09T22:29:19.400Z,65.00
2023-04-09T22:31:49.079Z,65.00
2023-04-09T22:34:21.304Z,64.90
2023-04-09T22:36:51.385Z,64.90
2023-04-09T22:39:18.736Z,64.90
2023-04-09T22:41:46.145Z,64.80
2023-04-09T22:44:15.677Z,64.80
2023-04-09T22:46:43.032Z,64.80
2023-04-09T22:49:12.442Z,64.90
2023-04-09T22:51:42.691Z,64.80
2023-04-09T22:54:09.997Z,64.70
2023-04-09T22:56:37.291Z,64.70
2023-04-09T22:59:04.565Z,64.60
2023-04-09T23:01:32.303Z,64.40
2023-04-09T23:04:02.141Z,64.60
2023-04-09T23:06:31.984Z,64.60
2023-04-09T23:09:02.109Z,64.60
2023-04-09T23:11:31.875Z,64.50
2023-04-09T23:14:01.633Z,64.60
2023-04-09T23:16:29.025Z,64.40
2023-04-09T23:18:56.493Z,64.50
2023-04-09T23:21:24.049Z,64.50
2023-04-09T23:23:51.410Z,64.70
2023-04-09T23:26:20.877Z,64.60
2023-04-09T23:28:48.221Z,64.40
2023-04-09T23:31:16.121Z,64.50
2023-04-09T23:33:43.459Z,64.50
2023-04-09T23:36:10.922Z,64.50
2023-04-09T23:38:40.442Z,64.50
2023-04-09T23:41:07.729Z,64.50
2023-04-09T23:43:37.155Z,64.50
2023-04-09T23:46:04.586Z,64.40
2023-04-09T23:48:31.914Z,64.30
2023-04-09T23:50:59.160Z,64.50
2023-04-09T23:53:28.852Z,64.50
2023-04-09T23:55:56.090Z,64.50
2023-04-09T23:58:25.543Z,64.60
